createdAt,value
2023-04-11T00:01:03.810Z,100844.75
2023-04-11T00:03:34.069Z,100840.89
2023-04-11T00:06:02.568Z,100843.35
2023-04-11T00:08:33.063Z,100842.19
2023-04-11T00:11:03.053Z,100845.84
2023-04-11T00:13:31.321Z,100846.02
2023-04-11T00:16:05.818Z,100842.58
2023-04-11T00:18:38.051Z,100842.44
2023-04-11T00:21:08.205Z,100845.70
2023-04-11T00:23:38.097Z,100843.75
2023-04-11T00:26:07.011Z,100843.14
2023-04-11T00:28:43.016Z,100837.85
2023-04-11T00:31:12.628Z,100840.61
2023-04-11T00:33:42.609Z,100840.70
2023-04-11T00:36:11.309Z,100837.15
2023-04-11T00:38:40.402Z,100836.43
2023-04-11T00:41:11.031Z,100835.27
2023-04-11T00:43:49.963Z,100834.45
2023-04-11T00:46:19.000Z,100836.11
2023-04-11T00:48:48.071Z,100833.15
2023-04-11T00:51:24.174Z,100836.38
2023-04-11T00:53:53.437Z,100833.33
2023-04-11T00:56:22.396Z,100830.81
2023-04-11T00:58:51.031Z,100833.90
2023-04-11T01:01:20.391Z,100835.80
2023-04-11T01:03:49.167Z,100837.58
2023-04-11T01:06:20.098Z,100840.02
2023-04-11T01:08:49.335Z,100843.42
2023-04-11T01:11:20.640Z,100845.61
2023-04-11T01:13:49.731Z,100846.42
2023-04-11T01:16:21.789Z,100850.41
2023-04-11T01:18:50.942Z,100848.98
2023-04-11T01:21:20.407Z,100846.69
2023-04-11T01:23:49.125Z,100840.07
2023-04-11T01:26:17.585Z,100838.52
2023-04-11T01:28:46.781Z,100837.96
2023-04-11T01:31:16.486Z,100834.44
2023-04-11T01:33:45.638Z,100832.43
2023-04-11T01:36:13.836Z,100831.53
2023-04-11T01:38:44.442Z,100830.05
2023-04-11T01:41:12.777Z,100826.05
2023-04-11T01:43:44.879Z,100826.88
2023-04-11T01:46:13.681Z,100829.38
2023-04-11T01:48:42.868Z,100826.30
2023-04-11T01:51:12.378Z,100822.39
2023-04-11T01:53:40.636Z,100824.02
2023-04-11T01:56:09.824Z,100826.13
2023-04-11T01:58:38.391Z,100820.63
2023-04-11T02:01:14.663Z,100819.29
2023-04-11T02:03:47.426Z,100816.98
2023-04-11T02:06:20.317Z,100816.16
2023-04-11T02:08:54.233Z,100816.92
2023-04-11T02:11:25.559Z,100815.40
2023-04-11T02:13:54.081Z,100813.60
2023-04-11T02:16:26.037Z,100808.38
2023-04-11T02:18:55.322Z,100805.86
2023-04-11T02:21:23.893Z,100805.81
2023-04-11T02:23:55.265Z,100804.20
2023-04-11T02:26:27.173Z,100802.19
2023-04-11T02:28:57.534Z,100801.88
2023-04-11T02:31:28.909Z,100801.41
2023-04-11T02:33:57.769Z,100804.17
2023-04-11T02:36:28.781Z,100803.80
2023-04-11T02:38:57.203Z,100800.71
2023-04-11T02:41:27.845Z,100800.52
2023-04-11T02:44:02.921Z,100801.42
2023-04-11T02:46:32.287Z,100798.78
2023-04-11T02:49:00.941Z,100795.38
2023-04-11T02:51:29.947Z,100791.92
2023-04-11T02:53:58.868Z,100788.77
2023-04-11T02:56:39.544Z,100789.20
2023-04-11T02:59:11.235Z,100787.76
2023-04-11T03:01:48.025Z,100786.96
2023-04-11T03:04:56.831Z,100784.31
2023-04-11T03:07:25.293Z,100783.08
2023-04-11T03:09:59.615Z,100782.93
2023-04-11T03:12:28.476Z,100784.18
2023-04-11T03:14:59.230Z,100789.18
2023-04-11T03:17:30.679Z,100784.02
2023-04-11T03:19:59.331Z,100776.51
2023-04-11T03:22:29.014Z,100780.09
2023-04-11T03:24:57.409Z,100785.45
2023-04-11T03:27:27.350Z,100787.05
2023-04-11T03:29:58.802Z,100786.23
2023-04-11T03:32:33.752Z,100786.23
2023-04-11T03:35:02.432Z,100783.22
2023-04-11T03:37:31.432Z,100783.63
2023-04-11T03:39:59.754Z,100786.16
2023-04-11T03:42:28.009Z,100786.81
2023-04-11T03:44:58.861Z,100790.25
2023-04-11T03:47:27.457Z,100791.64
2023-04-11T03:49:57.576Z,100790.37
2023-04-11T03:52:26.145Z,100789.42
2023-04-11T03:54:54.668Z,100786.78
2023-04-11T03:57:23.542Z,100783.94
2023-04-11T03:59:52.975Z,100782.59
2023-04-11T04:02:21.733Z,100779.00
2023-04-11T04:04:58.922Z,100775.23
2023-04-11T04:07:38.222Z,100766.73
2023-04-11T04:10:16.078Z,100765.89
2023-04-11T04:12:45.421Z,100760.63
2023-04-11T04:15:26.457Z,100757.89
2023-04-11T04:17:55.543Z,100754.10
2023-04-11T04:20:37.859Z,100746.45
2023-04-11T04:23:07.982Z,100745.48
2023-04-11T04:25:50.450Z,100744.19
2023-04-11T04:28:26.304Z,100740.06
2023-04-11T04:30:58.257Z,100736.75
2023-04-11T04:33:33.291Z,100731.73
2023-04-11T04:36:05.054Z,100733.48
2023-04-11T04:38:39.014Z,100728.67
2023-04-11T04:41:16.489Z,100727.20
2023-04-11T04:43:55.350Z,100725.79
2023-04-11T04:46:39.299Z,100728.98
2023-04-11T04:49:08.144Z,100728.61
2023-04-11T04:51:40.291Z,100731.49
2023-04-11T04:54:10.034Z,100728.10
2023-04-11T04:56:40.254Z,100724.77
2023-04-11T04:59:18.402Z,100721.80
2023-04-11T05:01:52.131Z,100720.60
2023-04-11T05:04:26.502Z,100721.80
2023-04-11T05:06:57.058Z,100724.64
2023-04-11T05:09:28.994Z,100725.56
2023-04-11T05:12:07.289Z,100723.80
2023-04-11T05:14:37.623Z,100722.41
2023-04-11T05:17:11.231Z,100723.85
2023-04-11T05:19:41.547Z,100722.38
2023-04-11T05:22:11.361Z,100719.67
2023-04-11T05:24:46.635Z,100715.33
2023-04-11T05:27:15.188Z,100715.30
2023-04-11T05:29:44.369Z,100711.02
2023-04-11T05:32:16.215Z,100707.25
2023-04-11T05:34:58.172Z,100705.85
2023-04-11T05:37:44.988Z,100702.52
2023-04-11T05:40:14.555Z,100702.64
2023-04-11T05:42:43.542Z,100700.42
2023-04-11T05:45:12.759Z,100697.64
2023-04-11T05:47:42.477Z,100702.05
2023-04-11T05:50:11.161Z,100700.96
2023-04-11T05:52:39.707Z,100701.46
2023-04-11T05:55:09.917Z,100693.13
2023-04-11T05:57:41.561Z,100692.45
2023-04-11T06:00:17.955Z,100691.80
2023-04-11T06:03:08.293Z,100695.67
2023-04-11T06:05:38.263Z,100693.08
2023-04-11T06:08:08.909Z,100693.15
2023-04-11T06:10:38.963Z,100691.77
2023-04-11T06:13:10.492Z,100688.39
2023-04-11T06:15:41.234Z,100686.46
2023-04-11T06:18:10.193Z,100689.94
2023-04-11T06:20:47.297Z,100681.29
2023-04-11T06:23:15.720Z,100677.31
2023-04-11T06:25:44.175Z,100682.90
2023-04-11T06:28:15.142Z,100679.61
2023-04-11T06:30:43.790Z,100680.39
2023-04-11T06:33:13.512Z,100676.83
2023-04-11T06:35:45.976Z,100677.25
2023-04-11T06:38:16.103Z,100678.19
2023-04-11T06:40:45.074Z,100674.78
2023-04-11T06:43:14.089Z,100670.96
2023-04-11T06:45:43.685Z,100673.58
2023-04-11T06:48:13.075Z,100674.52
2023-04-11T06:50:41.980Z,100672.33
2023-04-11T06:53:11.653Z,100666.70
2023-04-11T06:55:40.905Z,100659.70
2023-04-11T06:58:10.125Z,100657.60
2023-04-11T07:00:40.133Z,100656.48
2023-04-11T07:03:10.329Z,100657.23
2023-04-11T07:05:41.684Z,100657.17
2023-04-11T07:08:14.984Z,100657.08
2023-04-11T07:10:45.024Z,100648.34
2023-04-11T07:13:13.297Z,100649.94
2023-04-11T07:15:43.493Z,100645.73
2023-04-11T07:18:13.238Z,100637.73
2023-04-11T07:20:41.529Z,100633.29
2023-04-11T07:23:16.400Z,100630.50
2023-04-11T07:25:45.427Z,100630.09
2023-04-11T07:28:14.973Z,100630.41
2023-04-11T07:30:43.236Z,100626.63
2023-04-11T07:33:11.944Z,100626.81
2023-04-11T07:35:41.027Z,100633.19
2023-04-11T07:38:10.394Z,100632.63
2023-04-11T07:40:39.715Z,100628.85
2023-04-11T07:43:09.335Z,100627.60
2023-04-11T07:45:39.588Z,100626.31
2023-04-11T07:48:14.783Z,100626.29
2023-04-11T07:50:45.500Z,100623.83
2023-04-11T07:53:22.507Z,100624.10
2023-04-11T07:55:50.809Z,100621.15
2023-04-11T07:58:19.041Z,100618.71
2023-04-11T08:00:47.958Z,100614.91
2023-04-11T08:03:17.788Z,100607.65
2023-04-11T08:05:46.292Z,100605.00
2023-04-11T08:08:17.477Z,100600.21
2023-04-11T08:10:46.040Z,100591.63
2023-04-11T08:13:15.891Z,100590.47
2023-04-11T08:15:47.766Z,100586.10
2023-04-11T08:18:21.727Z,100580.35
2023-04-11T08:20:50.125Z,100575.02
2023-04-11T08:23:20.057Z,100578.15
2023-04-11T08:25:48.943Z,100569.48
2023-04-11T08:28:17.177Z,100565.25
2023-04-11T08:30:46.888Z,100564.14
2023-04-11T08:33:15.986Z,100558.98
2023-04-11T08:35:51.146Z,100556.69
2023-04-11T08:38:21.137Z,100553.98
2023-04-11T08:40:51.230Z,100548.79
2023-04-11T08:43:20.841Z,100547.14
2023-04-11T08:45:49.148Z,100542.86
2023-04-11T08:48:19.647Z,100536.79
2023-04-11T08:50:48.458Z,100533.42
2023-04-11T08:53:25.152Z,100531.37
2023-04-11T08:55:56.133Z,100530.29
2023-04-11T08:58:24.367Z,100533.59
2023-04-11T09:00:53.668Z,100526.83
2023-04-11T09:03:22.154Z,100523.65
2023-04-11T09:05:51.558Z,100518.95
2023-04-11T09:08:22.091Z,100520.55
2023-04-11T09:10:50.462Z,100515.36
2023-04-11T09:13:26.234Z,100508.88
2023-04-11T09:16:14.825Z,100505.10
2023-04-11T09:18:47.057Z,100499.71
2023-04-11T09:21:31.069Z,100496.73
2023-04-11T09:24:15.598Z,100491.67
2023-04-11T09:26:44.052Z,100486.65
2023-04-11T09:29:12.341Z,100486.17
2023-04-11T09:31:46.964Z,100484.77
2023-04-11T09:34:21.832Z,100478.21
2023-04-11T09:36:55.290Z,100480.64
2023-04-11T09:39:25.005Z,100479.09
2023-04-11T09:41:54.650Z,100474.45
2023-04-11T09:44:38.669Z,100474.05
2023-04-11T09:47:07.026Z,100471.36
2023-04-11T09:49:36.337Z,100469.91
2023-04-11T09:52:05.765Z,100465.73
2023-04-11T09:54:34.747Z,100461.21
2023-04-11T09:57:05.404Z,100456.53
2023-04-11T09:59:34.450Z,100451.05
2023-04-11T10:02:03.777Z,100435.52
2023-04-11T10:04:32.831Z,100437.11
2023-04-11T10:07:21.357Z,100438.88
2023-04-11T10:09:50.637Z,100433.76
2023-04-11T10:12:33.349Z,100434.44
2023-04-11T10:15:12.155Z,100430.30
2023-04-11T10:17:41.644Z,100429.77
2023-04-11T10:20:40.633Z,100428.72
2023-04-11T10:23:08.937Z,100421.95
2023-04-11T10:25:58.029Z,100417.28
2023-04-11T10:28:33.649Z,100412.48
2023-04-11T10:31:13.451Z,100406.98
2023-04-11T10:33:42.205Z,100405.23
2023-04-11T10:36:13.711Z,100398.83
2023-04-11T10:38:49.272Z,100402.14
2023-04-11T10:41:34.247Z,100397.84
2023-04-11T10:44:23.438Z,100391.12
2023-04-11T10:46:54.230Z,100387.36
2023-04-11T10:49:35.018Z,100383.79
2023-04-11T10:52:22.055Z,100379.33
2023-04-11T10:54:52.069Z,100376.70
2023-04-11T10:57:28.858Z,100378.30
2023-04-11T10:59:58.541Z,100376.50
2023-04-11T11:02:27.625Z,100377.34
2023-04-11T11:04:56.001Z,100377.23
2023-04-11T11:07:24.599Z,100371.73
2023-04-11T11:09:55.680Z,100374.33
2023-04-11T11:12:23.860Z,100370.44
2023-04-11T11:14:52.037Z,100365.31
2023-04-11T11:17:20.315Z,100364.47
2023-04-11T11:19:49.544Z,100362.98
2023-04-11T11:22:18.869Z,100357.41
2023-04-11T11:24:47.130Z,100355.37
2023-04-11T11:27:24.256Z,100352.01
2023-04-11T11:29:53.537Z,100352.77
2023-04-11T11:32:25.303Z,100350.73
2023-04-11T11:34:54.262Z,100344.96
2023-04-11T11:37:23.366Z,100342.77
2023-04-11T11:39:52.089Z,100340.30
2023-04-11T11:42:21.236Z,100336.36
2023-04-11T11:44:49.737Z,100339.44
2023-04-11T11:47:23.904Z,100331.64
2023-04-11T11:49:56.951Z,100333.98
2023-04-11T11:52:35.378Z,100332.20
2023-04-11T11:55:11.346Z,100329.59
2023-04-11T11:57:48.326Z,100328.53
2023-04-11T12:00:24.301Z,100325.00
2023-04-11T12:02:57.194Z,100315.88
2023-04-11T12:05:30.323Z,100313.16
2023-04-11T12:08:00.598Z,100303.83
2023-04-11T12:10:37.816Z,100307.58
2023-04-11T12:13:22.528Z,100304.16
2023-04-11T12:16:01.684Z,100306.97
2023-04-11T12:18:33.280Z,100297.77
2023-04-11T12:21:02.511Z,100289.32
2023-04-11T12:23:30.871Z,100288.10
2023-04-11T12:26:00.244Z,100285.22
2023-04-11T12:28:30.790Z,100280.20
2023-04-11T12:30:59.140Z,100279.71
2023-04-11T12:33:29.958Z,100278.69
2023-04-11T12:35:58.365Z,100278.83
2023-04-11T12:38:34.984Z,100274.46
2023-04-11T12:41:29.552Z,100267.63
2023-04-11T12:43:51.696Z,100261.25
2023-04-11T12:46:20.853Z,100263.52
2023-04-11T12:48:49.342Z,100257.16
2023-04-11T12:51:17.950Z,100252.38
2023-04-11T12:53:46.154Z,100248.77
2023-04-11T12:56:14.346Z,100250.42
2023-04-11T12:58:45.190Z,100246.94
2023-04-11T13:01:13.693Z,100246.72
2023-04-11T13:03:42.988Z,100242.73
2023-04-11T13:06:13.088Z,100240.75
2023-04-11T13:08:42.866Z,100232.63
2023-04-11T13:11:11.100Z,100228.28
2023-04-11T13:13:40.955Z,100225.48
2023-04-11T13:16:11.745Z,100216.79
2023-04-11T13:18:39.958Z,100216.08
2023-04-11T13:21:09.049Z,100211.76
2023-04-11T13:23:37.570Z,100208.95
2023-04-11T13:26:07.953Z,100207.57
2023-04-11T13:28:39.175Z,100199.86
2023-04-11T13:31:13.442Z,100199.61
2023-04-11T13:33:42.646Z,100198.86
2023-04-11T13:36:11.392Z,100203.21
2023-04-11T13:38:42.779Z,100196.30
2023-04-11T13:41:14.982Z,100193.35
2023-04-11T13:43:43.653Z,100190.52
2023-04-11T13:46:12.707Z,100179.20
2023-04-11T13:48:41.263Z,100180.79
2023-04-11T13:51:10.265Z,100176.58
2023-04-11T13:53:38.648Z,100175.02
2023-04-11T13:56:09.102Z,100178.20
2023-04-11T13:58:38.531Z,100175.15
2023-04-11T14:01:07.024Z,100174.33
2023-04-11T14:03:38.035Z,100173.91
2023-04-11T14:06:09.506Z,100174.45
2023-04-11T14:08:48.143Z,100168.28
2023-04-11T14:11:18.080Z,100172.04
2023-04-11T14:13:51.465Z,100162.83
2023-04-11T14:16:19.998Z,100161.59
2023-04-11T14:18:48.418Z,100154.46
2023-04-11T14:21:17.440Z,100154.77
2023-04-11T14:23:46.657Z,100153.83
2023-04-11T14:26:20.232Z,100156.39
2023-04-11T14:28:49.030Z,100155.57
2023-04-11T14:31:17.346Z,100153.41
2023-04-11T14:33:46.909Z,100146.60
2023-04-11T14:36:15.198Z,100146.61
2023-04-11T14:38:43.482Z,100144.88
2023-04-11T14:41:11.748Z,100148.50
2023-04-11T14:43:39.984Z,100144.67
2023-04-11T14:46:10.510Z,100145.35
2023-04-11T14:48:39.361Z,100143.61
2023-04-11T14:51:07.956Z,100140.38
2023-04-11T14:53:37.152Z,100139.09
2023-04-11T14:56:06.647Z,100142.45
2023-04-11T14:58:36.717Z,100141.70
2023-04-11T15:01:05.364Z,100142.38
2023-04-11T15:03:34.956Z,100136.20
2023-04-11T15:06:11.467Z,100140.92
2023-04-11T15:08:41.926Z,100136.86
2023-04-11T15:11:10.282Z,100131.59
2023-04-11T15:13:48.553Z,100136.20
2023-04-11T15:16:22.422Z,100133.84
2023-04-11T15:18:59.770Z,100130.66
2023-04-11T15:21:38.604Z,100127.73
2023-04-11T15:24:07.831Z,100129.38
2023-04-11T15:26:36.680Z,100129.86
2023-04-11T15:29:05.278Z,100126.91
2023-04-11T15:31:33.749Z,100131.39
2023-04-11T15:34:04.274Z,100126.91
2023-04-11T15:36:39.748Z,100126.98
2023-04-11T15:39:09.519Z,100125.44
2023-04-11T15:41:40.012Z,100127.38
2023-04-11T15:44:12.219Z,100124.05
2023-04-11T15:46:42.771Z,100123.49
2023-04-11T15:49:17.116Z,100124.90
2023-04-11T15:51:46.809Z,100118.66
2023-04-11T15:54:16.209Z,100114.85
2023-04-11T15:56:45.488Z,100110.83
2023-04-11T15:59:16.223Z,100105.80
2023-04-11T16:01:46.529Z,100105.95
2023-04-11T16:04:16.552Z,100106.09
2023-04-11T16:06:45.119Z,100108.79
2023-04-11T16:09:13.463Z,100110.92
2023-04-11T16:11:44.027Z,100111.19
2023-04-11T16:14:13.288Z,100107.95
2023-04-11T16:16:46.834Z,100104.64
2023-04-11T16:19:16.654Z,100107.73
2023-04-11T16:21:45.020Z,100104.22
2023-04-11T16:24:14.464Z,100106.16
2023-04-11T16:26:43.607Z,100107.14
2023-04-11T16:29:11.838Z,100110.20
2023-04-11T16:31:41.439Z,100109.95
2023-04-11T16:34:09.803Z,100112.09
2023-04-11T16:36:37.997Z,100111.56
2023-04-11T16:39:06.666Z,100112.80
2023-04-11T16:41:38.421Z,100107.88
2023-04-11T16:44:18.719Z,100107.27
2023-04-11T16:47:11.455Z,100106.54
2023-04-11T16:50:10.671Z,100103.66
2023-04-11T16:52:49.474Z,100097.80
2023-04-11T16:55:21.220Z,100097.14
2023-04-11T16:57:49.453Z,100091.91
2023-04-11T17:00:20.671Z,100092.69
2023-04-11T17:02:59.070Z,100097.30
2023-04-11T17:05:27.656Z,100100.77
2023-04-11T17:07:56.109Z,100101.85
2023-04-11T17:10:24.769Z,100102.46
2023-04-11T17:12:54.711Z,100101.23
2023-04-11T17:15:23.165Z,100101.70
2023-04-11T17:17:51.966Z,100102.80
2023-04-11T17:20:41.386Z,100104.80
2023-04-11T17:23:43.310Z,100111.65
2023-04-11T17:29:59.863Z,100112.39
2023-04-11T17:32:51.147Z,100112.09
2023-04-11T17:35:20.284Z,100112.98
2023-04-11T17:37:50.726Z,100115.70
2023-04-11T17:40:19.390Z,100110.91
2023-04-11T17:42:48.469Z,100105.06
2023-04-11T17:45:18.617Z,100105.93
2023-04-11T17:47:48.076Z,100105.16
2023-04-11T17:50:16.509Z,100104.34
2023-04-11T17:52:45.477Z,100108.20
2023-04-11T17:55:17.914Z,100106.16
2023-04-11T17:57:49.787Z,100101.62
2023-04-11T18:00:24.746Z,100101.13
2023-04-11T18:02:55.109Z,100097.67
2023-04-11T18:05:26.648Z,100099.02
2023-04-11T18:07:59.051Z,100099.34
2023-04-11T18:10:28.157Z,100098.30
2023-04-11T18:12:57.719Z,100099.24
2023-04-11T18:15:28.270Z,100096.98
2023-04-11T18:17:57.783Z,100092.11
2023-04-11T18:20:26.441Z,100094.98
2023-04-11T18:22:58.078Z,100094.20
2023-04-11T18:25:27.312Z,100095.07
2023-04-11T18:27:55.840Z,100093.11
2023-04-11T18:30:24.174Z,100088.20
2023-04-11T18:33:05.207Z,100084.90
2023-04-11T18:35:33.704Z,100086.23
2023-04-11T18:38:13.707Z,100081.48
2023-04-11T18:40:41.870Z,100076.48
2023-04-11T18:43:10.886Z,100070.27
2023-04-11T18:45:41.509Z,100062.06
2023-04-11T18:48:10.574Z,100056.34
2023-04-11T18:50:43.173Z,100052.73
2023-04-11T18:53:13.910Z,100049.70
2023-04-11T18:55:49.778Z,100041.58
2023-04-11T18:58:23.755Z,100039.02
2023-04-11T19:00:56.853Z,100027.72
2023-04-11T19:03:26.918Z,100024.09
2023-04-11T19:05:55.873Z,100028.77
2023-04-11T19:08:34.668Z,100029.08
2023-04-11T19:11:08.599Z,100033.12
2023-04-11T19:13:43.296Z,100029.54
2023-04-11T19:16:16.235Z,100035.07
2023-04-11T19:18:55.509Z,100034.98
2023-04-11T19:21:28.264Z,100031.27
2023-04-11T19:24:10.290Z,100025.29
2023-04-11T19:26:40.441Z,100017.00
2023-04-11T19:29:11.086Z,100016.17
2023-04-11T19:31:40.581Z,100012.14
2023-04-11T19:34:15.586Z,100011.66
2023-04-11T19:36:45.363Z,100011.04
2023-04-11T19:39:16.581Z,100012.49
2023-04-11T19:41:51.535Z,100008.00
2023-04-11T19:44:37.865Z,100009.07
2023-04-11T19:47:06.404Z,100003.22
2023-04-11T19:49:35.823Z,100007.47
2023-04-11T19:52:08.973Z,100001.61
2023-04-11T19:54:51.623Z,99997.55
2023-04-11T19:57:34.513Z,99992.04
2023-04-11T20:00:17.552Z,99981.46
2023-04-11T20:02:49.052Z,99977.41
2023-04-11T20:05:19.213Z,99977.08
2023-04-11T20:07:48.087Z,99981.46
2023-04-11T20:10:21.671Z,99976.59
2023-04-11T20:12:52.690Z,99982.76
2023-04-11T20:15:21.107Z,99983.20
2023-04-11T20:17:49.817Z,99983.24
2023-04-11T20:20:20.296Z,99975.03
2023-04-11T20:22:49.926Z,99975.95
2023-04-11T20:25:18.233Z,99973.45
2023-04-11T20:27:46.868Z,99975.32
2023-04-11T20:30:17.474Z,99972.38
2023-04-11T20:32:47.239Z,99973.52
2023-04-11T20:35:15.768Z,99974.40
2023-04-11T20:37:49.197Z,99975.92
2023-04-11T20:40:19.344Z,99976.11
2023-04-11T20:42:49.833Z,99978.25
2023-04-11T20:45:21.943Z,99979.76
2023-04-11T20:47:54.419Z,99981.45
2023-04-11T20:50:40.360Z,99978.34
2023-04-11T20:53:10.597Z,99973.03
2023-04-11T20:55:43.443Z,99968.57
2023-04-11T20:58:17.391Z,99962.71
2023-04-11T21:00:46.116Z,99958.64
2023-04-11T21:03:16.743Z,99957.96
2023-04-11T21:05:46.884Z,99952.42
2023-04-11T21:08:15.722Z,99944.89
2023-04-11T21:10:44.221Z,99937.61
2023-04-11T21:13:16.690Z,99924.80
2023-04-11T21:15:46.606Z,99930.01
2023-04-11T21:18:16.125Z,99924.38
2023-04-11T21:20:44.400Z,99923.39
2023-04-11T21:23:12.729Z,99915.88
2023-04-11T21:25:42.347Z,99918.66
2023-04-11T21:28:10.971Z,99917.94
2023-04-11T21:30:39.913Z,99916.16
2023-04-11T21:33:11.080Z,99913.31
2023-04-11T21:35:39.530Z,99919.59
2023-04-11T21:38:08.689Z,99915.70
2023-04-11T21:40:40.440Z,99914.92
2023-04-11T21:43:10.987Z,99915.13
2023-04-11T21:45:44.756Z,99909.97
2023-04-11T21:48:18.825Z,99907.02
2023-04-11T21:50:48.814Z,99909.06
2023-04-11T21:53:18.537Z,99902.30
2023-04-11T21:55:47.041Z,99894.36
2023-04-11T21:58:28.966Z,99892.80
2023-04-11T22:00:59.770Z,99889.16
2023-04-11T22:03:31.386Z,99885.11
2023-04-11T22:06:00.532Z,99881.48
2023-04-11T22:08:31.348Z,99872.41
2023-04-11T22:11:00.428Z,99858.53
2023-04-11T22:13:32.332Z,99859.73
2023-04-11T22:16:06.331Z,99860.14
2023-04-11T22:18:47.622Z,99859.25
2023-04-11T22:21:21.217Z,99859.23
2023-04-11T22:23:59.152Z,99854.22
2023-04-11T22:26:34.236Z,99853.17
2023-04-11T22:29:05.881Z,99849.65
2023-04-11T22:31:41.928Z,99845.83
2023-04-11T22:34:13.670Z,99837.30
2023-04-11T22:36:55.301Z,99834.81
2023-04-11T22:39:54.647Z,99825.35
2023-04-11T22:42:27.057Z,99818.67
2023-04-11T22:45:01.470Z,99809.33
2023-04-11T22:47:34.956Z,99805.63
2023-04-11T22:50:12.683Z,99801.77
2023-04-11T22:52:42.870Z,99798.70
2023-04-11T22:55:21.449Z,99795.27
2023-04-11T22:58:02.201Z,99793.45
2023-04-11T23:00:47.687Z,99794.61
2023-04-11T23:03:18.323Z,99795.88
2023-04-11T23:05:46.887Z,99787.91
2023-04-11T23:08:19.127Z,99784.73
2023-04-11T23:10:47.731Z,99780.66
2023-04-11T23:13:17.689Z,99773.64
2023-04-11T23:15:50.777Z,99766.46
2023-04-11T23:18:19.678Z,99762.77
2023-04-11T23:20:49.121Z,99753.93
2023-04-11T23:23:25.262Z,99753.85
2023-04-11T23:25:54.525Z,99748.34
2023-04-11T23:28:25.450Z,99745.03
2023-04-11T23:30:56.702Z,99739.69
2023-04-11T23:33:46.543Z,99736.66
2023-04-11T23:36:37.264Z,99733.83
2023-04-11T23:39:08.637Z,99730.98
2023-04-11T23:41:39.006Z,99733.22
2023-04-11T23:44:10.681Z,99730.05
2023-04-11T23:46:43.391Z,99726.96
2023-04-11T23:49:13.424Z,99726.86
2023-04-11T23:51:42.710Z,99728.73
2023-04-11T23:54:12.982Z,99726.19
2023-04-11T23:56:43.873Z,99729.09
2023-04-11T23:59:12.486Z,99722.77
